Home > Products > Valid Products > TAF

000
FTUS44 KLIX 020541
TAFMSY
TAF
KMSY 020541Z 0206/0306 18004KT P6SM FEW030 SCT150 OVC200
     FM021400 03006KT P6SM BKN250
     FM021800 15006KT P6SM VCSH SCT040 BKN250=



000
FTUS44 KLIX 020541
TAFBTR
TAF
KBTR 020541Z 0206/0306 00000KT P6SM SKC
     FM021400 32004KT P6SM SCT250
     FM021900 12005KT P6SM VCSH SCT040 BKN250=



000
FTUS44 KLIX 020541
TAFGPT
TAF
KGPT 020541Z 0206/0306 00000KT P6SM SKC
     FM021600 25004KT P6SM SCT030
     FM021800 22006KT P6SM SCT040=



000
FTUS44 KLIX 020541
TAFMCB
TAF
KMCB 020541Z 0206/0306 00000KT P6SM SKC
     FM020900 00000KT 4SM BR SCT250
     FM021600 VRB03KT P6SM SCT030=



000
FTUS44 KLIX 020541
TAFNEW
TAF
KNEW 020541Z 0206/0306 19005KT P6SM SKC
     FM020800 VRB04KT P6SM SCT250
     FM021100 34006KT P6SM SCT250
     FM021800 27006KT P6SM SCT250=



000
FTUS44 KLIX 020541
TAFNEW
TAF
KNEW 020541Z 0206/0306 19005KT P6SM SKC
     FM020800 VRB04KT P6SM SCT250
     FM021100 34006KT P6SM SCT250
     FM021800 27006KT P6SM SCT250=



000
FTUS44 KLIX 020541
TAFMCB
TAF
KMCB 020541Z 0206/0306 00000KT P6SM SKC
     FM020900 00000KT 4SM BR SCT250
     FM021600 VRB03KT P6SM SCT030=



000
FTUS44 KLIX 020541
TAFNEW
TAF
KNEW 020541Z 0206/0306 19005KT P6SM SKC
     FM020800 VRB04KT P6SM SCT250
     FM021100 34006KT P6SM SCT250
     FM021800 27006KT P6SM SCT250=



000
FTUS44 KLIX 020541
TAFBTR
TAF
KBTR 020541Z 0206/0306 00000KT P6SM SKC
     FM021400 32004KT P6SM SCT250
     FM021900 12005KT P6SM VCSH SCT040 BKN250=



000
FTUS44 KLIX 020541
TAFNEW
TAF
KNEW 020541Z 0206/0306 19005KT P6SM SKC
     FM020800 VRB04KT P6SM SCT250
     FM021100 34006KT P6SM SCT250
     FM021800 27006KT P6SM SCT250=



000
FTUS44 KLIX 020541
TAFMSY
TAF
KMSY 020541Z 0206/0306 18004KT P6SM FEW030 SCT150 OVC200
     FM021400 03006KT P6SM BKN250
     FM021800 15006KT P6SM VCSH SCT040 BKN250=



000
FTUS44 KLIX 020541
TAFGPT
TAF
KGPT 020541Z 0206/0306 00000KT P6SM SKC
     FM021600 25004KT P6SM SCT030
     FM021800 22006KT P6SM SCT040=



000
FTUS44 KLIX 012331
TAFGPT
TAF
KGPT 012331Z 0200/0224 21005KT P6SM SKC
     FM020100 VRB04KT P6SM SCT250
     FM021600 25004KT P6SM SCT030
     FM021800 22006KT P6SM SCT040=



000
FTUS44 KLIX 012331
TAFNEW
TAF
KNEW 012331Z 0200/0224 15005KT P6SM SKC
     FM020600 21007KT P6SM FEW250
     FM020800 VRB04KT P6SM SCT250
     FM021100 34006KT P6SM SCT250
     FM021800 27006KT P6SM SCT250=



000
FTUS44 KLIX 012331
TAFBTR
TAF
KBTR 012331Z 0200/0224 11005KT P6SM BKN250
     FM020100 VRB03KT P6SM BKN250
     FM021400 32004KT P6SM SCT250
     FM021900 12005KT P6SM VCSH SCT040 BKN250=



000
FTUS44 KLIX 012331
TAFMCB
TAF
KMCB 012331Z 0200/0224 15005KT P6SM SKC
     FM020100 VRB03KT P6SM SCT250
     FM020900 00000KT 4SM BR SCT250
     FM021600 VRB03KT P6SM SCT030=



000
FTUS44 KLIX 012331
TAFMSY
TAF
KMSY 012331Z 0200/0224 18010KT P6SM FEW045 BKN250
     FM020200 18004KT P6SM BKN250
     FM020600 VRB03KT P6SM BKN250
     FM021400 03006KT P6SM BKN250
     FM021800 15006KT P6SM VCSH SCT040 BKN250=



000
FTUS44 KLIX 012331
TAFNEW
TAF
KNEW 012331Z 0200/0224 15005KT P6SM SKC
     FM020600 21007KT P6SM FEW250
     FM020800 VRB04KT P6SM SCT250
     FM021100 34006KT P6SM SCT250
     FM021800 27006KT P6SM SCT250=



000
FTUS44 KLIX 011721
TAFNEW
TAF
KNEW 011721Z 0118/0218 03006KT P6SM SCT035 BKN250
     FM020300 21007KT P6SM FEW250
     FM020800 VRB04KT P6SM SCT250=



000
FTUS44 KLIX 011721
TAFBTR
TAF
KBTR 011721Z 0118/0218 VRB04KT P6SM SCT035 BKN250
     FM020100 VRB04KT P6SM BKN250=



000
FTUS44 KLIX 011721
TAFMSY
TAF
KMSY 011721Z 0118/0218 18007KT P6SM SCT035 BKN250
     FM020200 VRB04KT P6SM BKN250=



000
FTUS44 KLIX 011721
TAFNEW
TAF
KNEW 011721Z 0118/0218 03006KT P6SM SCT035 BKN250
     FM020300 21007KT P6SM FEW250
     FM020800 VRB04KT P6SM SCT250=



000
FTUS44 KLIX 011721
TAFNEW
TAF
KNEW 011721Z 0118/0218 03006KT P6SM SCT035 BKN250
     FM020300 21007KT P6SM FEW250
     FM020800 VRB04KT P6SM SCT250=



000
FTUS44 KLIX 011721
TAFGPT
TAF
KGPT 011721Z 0118/0218 16006KT P6SM SCT035
     FM020100 VRB04KT P6SM SCT250
     FM021600 25004KT P6SM SCT030=



000
FTUS44 KLIX 011721
TAFMCB
TAF
KMCB 011721Z 0118/0218 11008KT P6SM SCT035 BKN250
     FM020100 VRB03KT P6SM SCT250
     FM020900 00000KT 4SM BR SCT250
     FM021600 VRB03KT P6SM SCT030=



000
FTUS44 KLIX 011721
TAFMSY
TAF
KMSY 011721Z 0118/0218 18007KT P6SM SCT035 BKN250
     FM020200 VRB04KT P6SM BKN250=



000
FTUS44 KLIX 011721
TAFNEW
TAF
KNEW 011721Z 0118/0218 03006KT P6SM SCT035 BKN250
     FM020300 21007KT P6SM FEW250
     FM020800 VRB04KT P6SM SCT250=



000
FTUS44 KLIX 011721
TAFGPT
TAF
KGPT 011721Z 0118/0218 16006KT P6SM SCT035
     FM020100 VRB04KT P6SM SCT250
     FM021600 25004KT P6SM SCT030=



000
FTUS44 KLIX 011721
TAFMCB
TAF
KMCB 011721Z 0118/0218 11008KT P6SM SCT035 BKN250
     FM020100 VRB03KT P6SM SCT250
     FM020900 00000KT 4SM BR SCT250
     FM021600 VRB03KT P6SM SCT030=



000
FTUS44 KLIX 011721
TAFBTR
TAF
KBTR 011721Z 0118/0218 VRB04KT P6SM SCT035 BKN250
     FM020100 VRB04KT P6SM BKN250=



000
FTUS44 KLIX 011128
TAFMCB
TAF
KMCB 011128Z 0112/0212 00000KT 4SM BR SKC
      TEMPO 0112/0113 4SM BR SKC
     FM011400 36004KT P6SM SCT035
     FM011900 13006KT P6SM SCT040
     FM012330 VRB03KT P6SM FEW040
     FM020800 VRB03KT 4SM BR SKC=



000
FTUS44 KLIX 011128
TAFMCB
TAF
KMCB 011128Z 0112/0212 00000KT 4SM BR SKC
      TEMPO 0112/0113 4SM BR SKC
     FM011400 36004KT P6SM SCT035
     FM011900 13006KT P6SM SCT040
     FM012330 VRB03KT P6SM FEW040
     FM020800 VRB03KT 4SM BR SKC=



000
FTUS44 KLIX 011128
TAFMSY
TAF
KMSY 011128Z 0112/0212 00000KT P6SM BKN250
     FM011700 07006KT P6SM FEW040
     FM011900 16007KT P6SM SCT040
     FM020100 20004KT P6SM FEW040
     FM020800 VRB03KT 5SM BR SKC=



000
FTUS44 KLIX 011128
TAFNEW
TAF
KNEW 011128Z 0112/0212 00000KT P6SM SKC
     FM011400 03006KT P6SM FEW140
     FM011900 15007KT P6SM SCT040
     FM020100 21005KT P6SM FEW040=



000
FTUS44 KLIX 011128
TAFMSY
TAF
KMSY 011128Z 0112/0212 00000KT P6SM BKN250
     FM011700 07006KT P6SM FEW040
     FM011900 16007KT P6SM SCT040
     FM020100 20004KT P6SM FEW040
     FM020800 VRB03KT 5SM BR SKC=



000
FTUS44 KLIX 011128
TAFBTR
TAF
KBTR 011128Z 0112/0212 00000KT 6SM BR SKC
     FM011500 VRB03KT P6SM SCT040
     FM011900 14005KT P6SM SCT040
     FM012330 19004KT P6SM FEW040
     FM020800 VRB03KT 4SM BR SKC=



000
FTUS44 KLIX 011128
TAFGPT
TAF
KGPT 011128Z 0112/0212 00000KT P6SM SKC
     FM011400 32006KT P6SM FEW250
     FM011700 17006KT P6SM SCT040
     FM020030 VRB03KT P6SM FEW040
     FM020800 VRB03KT 5SM BR SKC=



000
FTUS44 KLIX 011128
TAFBTR
TAF
KBTR 011128Z 0112/0212 00000KT 6SM BR SKC
     FM011500 VRB03KT P6SM SCT040
     FM011900 14005KT P6SM SCT040
     FM012330 19004KT P6SM FEW040
     FM020800 VRB03KT 4SM BR SKC=



000
FTUS44 KLIX 011128
TAFNEW
TAF
KNEW 011128Z 0112/0212 00000KT P6SM SKC
     FM011400 03006KT P6SM FEW140
     FM011900 15007KT P6SM SCT040
     FM020100 21005KT P6SM FEW040=



000
FTUS44 KLIX 011128
TAFNEW
TAF
KNEW 011128Z 0112/0212 00000KT P6SM SKC
     FM011400 03006KT P6SM FEW140
     FM011900 15007KT P6SM SCT040
     FM020100 21005KT P6SM FEW040=



000
FTUS44 KLIX 011128
TAFGPT
TAF
KGPT 011128Z 0112/0212 00000KT P6SM SKC
     FM011400 32006KT P6SM FEW250
     FM011700 17006KT P6SM SCT040
     FM020030 VRB03KT P6SM FEW040
     FM020800 VRB03KT 5SM BR SKC=



000
FTUS44 KLIX 011128
TAFNEW
TAF
KNEW 011128Z 0112/0212 00000KT P6SM SKC
     FM011400 03006KT P6SM FEW140
     FM011900 15007KT P6SM SCT040
     FM020100 21005KT P6SM FEW040=



000
FTUS44 KLIX 010520
TAFNEW
TAF
KNEW 010520Z 0106/0206 14003KT P6SM SKC
     FM011000 27004KT P6SM FEW200
     FM011400 03006KT P6SM FEW140
     FM011900 15007KT P6SM SCT040
     FM020100 21005KT P6SM FEW040=



000
FTUS44 KLIX 010520
TAFBTR
TAF
KBTR 010520Z 0106/0206 00000KT P6SM SKC
     FM011500 VRB03KT P6SM SCT040
     FM011900 14005KT P6SM SCT040
     FM012330 19004KT P6SM FEW040=



000
FTUS44 KLIX 010520
TAFNEW
TAF
KNEW 010520Z 0106/0206 14003KT P6SM SKC
     FM011000 27004KT P6SM FEW200
     FM011400 03006KT P6SM FEW140
     FM011900 15007KT P6SM SCT040
     FM020100 21005KT P6SM FEW040=



000
FTUS44 KLIX 010520
TAFMSY
TAF
KMSY 010520Z 0106/0206 00000KT P6SM FEW250
     FM011700 07006KT P6SM FEW040
     FM011900 16007KT P6SM SCT040
     FM020100 20004KT P6SM FEW040=



000
FTUS44 KLIX 010520
TAFGPT
TAF
KGPT 010520Z 0106/0206 00000KT P6SM SKC
     FM011400 32006KT P6SM FEW250
     FM011700 17006KT P6SM SCT040
     FM020030 VRB03KT P6SM FEW040=



000
FTUS44 KLIX 010520
TAFMCB
TAF
KMCB 010520Z 0106/0206 00000KT P6SM SKC
      TEMPO 0111/0113 4SM BR SKC
     FM011400 36004KT P6SM SCT035
     FM011900 13006KT P6SM SCT040
     FM012330 VRB03KT P6SM FEW040=



000
FTUS44 KLIX 010520
TAFBTR
TAF
KBTR 010520Z 0106/0206 00000KT P6SM SKC
     FM011500 VRB03KT P6SM SCT040
     FM011900 14005KT P6SM SCT040
     FM012330 19004KT P6SM FEW040=



000
FTUS44 KLIX 010520
TAFNEW
TAF
KNEW 010520Z 0106/0206 14003KT P6SM SKC
     FM011000 27004KT P6SM FEW200
     FM011400 03006KT P6SM FEW140
     FM011900 15007KT P6SM SCT040
     FM020100 21005KT P6SM FEW040=



000
FTUS44 KLIX 010520
TAFMSY
TAF
KMSY 010520Z 0106/0206 00000KT P6SM FEW250
     FM011700 07006KT P6SM FEW040
     FM011900 16007KT P6SM SCT040
     FM020100 20004KT P6SM FEW040=



000
FTUS44 KLIX 010520
TAFMCB
TAF
KMCB 010520Z 0106/0206 00000KT P6SM SKC
      TEMPO 0111/0113 4SM BR SKC
     FM011400 36004KT P6SM SCT035
     FM011900 13006KT P6SM SCT040
     FM012330 VRB03KT P6SM FEW040=



000
FTUS44 KLIX 010520
TAFGPT
TAF
KGPT 010520Z 0106/0206 00000KT P6SM SKC
     FM011400 32006KT P6SM FEW250
     FM011700 17006KT P6SM SCT040
     FM020030 VRB03KT P6SM FEW040=



000
FTUS44 KLIX 010520
TAFNEW
TAF
KNEW 010520Z 0106/0206 14003KT P6SM SKC
     FM011000 27004KT P6SM FEW200
     FM011400 03006KT P6SM FEW140
     FM011900 15007KT P6SM SCT040
     FM020100 21005KT P6SM FEW040=



000
FTUS44 KLIX 312340
TAFGPT
TAF
KGPT 312340Z 0100/0124 18006KT P6SM SKC
     FM010300 00000KT P6SM FEW250
     FM011400 32006KT P6SM FEW250
     FM011700 16006KT P6SM SCT040=



000
FTUS44 KLIX 312340
TAFMCB
TAF
KMCB 312340Z 0100/0124 19005KT P6SM FEW070
     FM010100 VRB04KT P6SM FEW250
      TEMPO 0111/0113 4SM BR SKC
     FM011400 36004KT P6SM SCT035=



000
FTUS44 KLIX 312340
TAFNEW
TAF
KNEW 312340Z 0100/0124 13006KT P6SM SKC
     FM011000 27004KT P6SM FEW200
     FM011400 35006KT P6SM FEW140=



000
FTUS44 KLIX 312340
TAFMSY
TAF
KMSY 312340Z 0100/0124 19009KT P6SM SCT060 SCT180 SCT250
     FM010300 20006KT P6SM FEW130
     FM011700 32006KT P6SM FEW040=



000
FTUS44 KLIX 312340
TAFBTR
TAF
KBTR 312340Z 0100/0124 27005KT P6SM SKC
     FM010300 VRB02KT P6SM SKC
     FM011500 VRB03KT P6SM SCT040=



000
FTUS44 KLIX 312340
TAFNEW
TAF
KNEW 312340Z 0100/0124 13006KT P6SM SKC
     FM011000 27004KT P6SM FEW200
     FM011400 35006KT P6SM FEW140=



000
FTUS44 KLIX 311729
TAFNEW
TAF
KNEW 311729Z 3118/0118 03005KT P6SM FEW025
     FM312200 14006KT P6SM FEW110 SCT250
     FM011000 27004KT P6SM FEW200
     FM011400 35006KT P6SM FEW140=



000
FTUS44 KLIX 311729
TAFGPT
TAF
KGPT 311729Z 3118/0118 17006KT P6SM FEW050
     FM010300 00000KT P6SM FEW250
     FM011400 32006KT P6SM FEW250=



000
FTUS44 KLIX 311729
TAFMSY
TAF
KMSY 311729Z 3118/0118 03007KT P6SM FEW030
     FM312300 14004KT P6SM FEW050
     FM010300 20006KT P6SM FEW130
     FM011700 32006KT P6SM FEW040=



000
FTUS44 KLIX 311729
TAFBTR
TAF
KBTR 311729Z 3118/0118 VRB04KT P6SM SCT035
     FM312300 VRB03KT P6SM FEW250
      TEMPO 0111/0113 5SM BR SKC=



000
FTUS44 KLIX 311729
TAFMCB
TAF
KMCB 311729Z 3118/0118 02004KT P6SM SKC
     FM010100 VRB04KT P6SM FEW250
      TEMPO 0111/0113 4SM BR SKC=



000
FTUS44 KLIX 311729
TAFNEW
TAF
KNEW 311729Z 3118/0118 03005KT P6SM FEW025
     FM312200 14006KT P6SM FEW110 SCT250
     FM011000 27004KT P6SM FEW200
     FM011400 35006KT P6SM FEW140=



000
FTUS44 KLIX 311120
TAFBTR
TAF
KBTR 311120Z 3112/0112 VRB03KT P6SM SCT250
     FM311630 16005KT P6SM SCT060
     FM010100 00000KT P6SM SKC=



000
FTUS44 KLIX 311120
TAFBTR
TAF
KBTR 311120Z 3112/0112 VRB03KT P6SM SCT250
     FM311630 16005KT P6SM SCT060
     FM010100 00000KT P6SM SKC=



000
FTUS44 KLIX 311120
TAFMCB
TAF
KMCB 311120Z 3112/0112 VRB03KT P6SM FEW250
     FM311700 VRB05KT P6SM SCT070
     FM010100 00000KT P6SM SKC=



000
FTUS44 KLIX 311120
TAFMCB
TAF
KMCB 311120Z 3112/0112 VRB03KT P6SM FEW250
     FM311700 VRB05KT P6SM SCT070
     FM010100 00000KT P6SM SKC=



000
FTUS44 KLIX 311120
TAFNEW
TAF
KNEW 311120Z 3112/0112 VRB05KT P6SM SKC
     FM311700 VRB06KT P6SM SCT040
     FM010200 18011KT P6SM SKC=



000
FTUS44 KLIX 311120
TAFGPT
TAF
KGPT 311120Z 3112/0112 VRB02KT P6SM SKC
     FM311700 18006KT P6SM SCT050
     FM010300 VRB06KT P6SM SKC=



000
FTUS44 KLIX 311120
TAFMSY
TAF
KMSY 311120Z 3112/0112 21005KT P6SM SKC
     FM311600 VRB05KT P6SM SCT040
     FM010200 18009KT P6SM SKC=



000
FTUS44 KLIX 311120
TAFNEW
TAF
KNEW 311120Z 3112/0112 VRB05KT P6SM SKC
     FM311700 VRB06KT P6SM SCT040
     FM010200 18011KT P6SM SKC=



000
FTUS44 KLIX 311120
TAFGPT
TAF
KGPT 311120Z 3112/0112 VRB02KT P6SM SKC
     FM311700 18006KT P6SM SCT050
     FM010300 VRB06KT P6SM SKC=



000
FTUS44 KLIX 311120
TAFMSY
TAF
KMSY 311120Z 3112/0112 21005KT P6SM SKC
     FM311600 VRB05KT P6SM SCT040
     FM010200 18009KT P6SM SKC=



000
FTUS44 KLIX 311120
TAFNEW
TAF
KNEW 311120Z 3112/0112 VRB05KT P6SM SKC
     FM311700 VRB06KT P6SM SCT040
     FM010200 18011KT P6SM SKC=



000
FTUS44 KLIX 310520
TAFBTR
TAF
KBTR 310520Z 3106/0106 VRB03KT P6SM SCT250
     FM311500 21005KT P6SM SCT045=



000
FTUS44 KLIX 310520
TAFNEW
TAF
KNEW 310520Z 3106/0106 VRB05KT P6SM SKC
     FM311600 34006KT P6SM SCT040=



000
FTUS44 KLIX 310520
TAFMCB
TAF
KMCB 310520Z 3106/0106 VRB03KT P6SM FEW250
      TEMPO 3110/3112 4SM BR
     FM311500 23005KT P6SM SCT045=



000
FTUS44 KLIX 310520
TAFGPT
TAF
KGPT 310520Z 3106/0106 VRB02KT P6SM FEW250
     FM311100 34004KT P6SM SKC
     FM311700 18006KT P6SM SCT040=



000
FTUS44 KLIX 310520
TAFMSY
TAF
KMSY 310520Z 3106/0106 21005KT P6SM SKC
     FM311500 VRB05KT P6SM SCT040=



000
FTUS44 KLIX 310520
TAFBTR
TAF
KBTR 310520Z 3106/0106 VRB03KT P6SM SCT250
     FM311500 21005KT P6SM SCT045=



000
FTUS44 KLIX 310520
TAFMCB
TAF
KMCB 310520Z 3106/0106 VRB03KT P6SM FEW250
      TEMPO 3110/3112 4SM BR
     FM311500 23005KT P6SM SCT045=



000
FTUS44 KLIX 310520
TAFNEW
TAF
KNEW 310520Z 3106/0106 VRB05KT P6SM SKC
     FM311600 34006KT P6SM SCT040=



000
FTUS44 KLIX 310520
TAFGPT
TAF
KGPT 310520Z 3106/0106 VRB02KT P6SM FEW250
     FM311100 34004KT P6SM SKC
     FM311700 18006KT P6SM SCT040=



000
FTUS44 KLIX 310520
TAFNEW
TAF
KNEW 310520Z 3106/0106 VRB05KT P6SM SKC
     FM311600 34006KT P6SM SCT040=



000
FTUS44 KLIX 310520
TAFMSY
TAF
KMSY 310520Z 3106/0106 21005KT P6SM SKC
     FM311500 VRB05KT P6SM SCT040=



000
FTUS44 KLIX 310520
TAFNEW
TAF
KNEW 310520Z 3106/0106 VRB05KT P6SM SKC
     FM311600 34006KT P6SM SCT040=



000
FTUS44 KLIX 302332
TAFBTR
TAF
KBTR 302332Z 3100/3124 VRB03KT P6SM SCT250
     FM311500 21005KT P6SM SCT045=



000
FTUS44 KLIX 302332
TAFNEW
TAF
KNEW 302332Z 3100/3124 VRB05KT P6SM FEW060
     FM311600 34006KT P6SM SCT040=



000
FTUS44 KLIX 302332
TAFMSY
TAF
KMSY 302332Z 3100/3124 VRB05KT P6SM SCT060
     FM311500 VRB05KT P6SM SCT040=



000
FTUS44 KLIX 302332
TAFGPT
TAF
KGPT 302332Z 3100/3124 VRB03KT P6SM SKC
     FM311100 34004KT P6SM SKC
     FM311700 18006KT P6SM SCT040=



000
FTUS44 KLIX 302332
TAFMCB
TAF
KMCB 302332Z 3100/3124 VRB03KT P6SM FEW060
     FM311000 00000KT 3SM BR FEW250
     FM311500 23005KT P6SM SCT045=



000
FTUS44 KLIX 302332
TAFNEW
TAF
KNEW 302332Z 3100/3124 VRB05KT P6SM FEW060
     FM311600 34006KT P6SM SCT040=



000
FTUS44 KLIX 301736
TAFBTR
TAF
KBTR 301736Z 3018/3118 VRB03KT P6SM SCT050
     FM301900 24004KT P6SM SCT050
     FM310100 00000KT P6SM SCT180=



000
FTUS44 KLIX 301736
TAFGPT
TAF
KGPT 301736Z 3018/3118 20007KT P6SM SCT045
     FM311100 32003KT P6SM FEW250
     FM311700 22006KT P6SM FEW250=



000
FTUS44 KLIX 301736
TAFMCB
TAF
KMCB 301736Z 3018/3118 20003KT P6SM SCT060
     FM311000 00000KT 3SM BR FEW250
     FM311400 30003KT P6SM FEW250=



000
FTUS44 KLIX 301736
TAFMSY
TAF
KMSY 301736Z 3018/3118 03006KT P6SM FEW035 SCT250
     FM302200 13005KT P6SM FEW040 SCT250
     FM310300 20006KT P6SM SCT250=



000
FTUS44 KLIX 301736
TAFNEW
TAF
KNEW 301736Z 3018/3118 35006KT P6SM FEW050
     FM310100 18007KT P6SM FEW250
     FM311100 30005KT P6SM FEW250=



000
FTUS44 KLIX 301135
TAFNEW
TAF
KNEW 301135Z 3012/3112 16005KT P6SM FEW250
     FM301600 04007KT P6SM SCT045
     FM310000 15006KT P6SM SCT150=



000
FTUS44 KLIX 301135
TAFMCB
TAF
KMCB 301135Z 3012/3112 00000KT P6SM SKC
      TEMPO 3012/3013 5SM BR
     FM301430 VRB03KT P6SM FEW050
     FM301800 12006KT P6SM SCT060 SCT150
     FM310100 VRB02KT P6SM SCT200=



000
FTUS44 KLIX 301135
TAFBTR
TAF
KBTR 301135Z 3012/3112 00000KT P6SM SKC
     FM301430 19005KT P6SM FEW050
     FM310100 00000KT P6SM SCT180=



000
FTUS44 KLIX 301135
TAFGPT
TAF
KGPT 301135Z 3012/3112 00000KT P6SM SCT250
     FM301600 18006KT P6SM SCT050 SCT250
     FM310500 VRB04KT P6SM FEW060 SCT150=



000
FTUS44 KLIX 301135
TAFMSY
TAF
KMSY 301135Z 3012/3112 19005KT P6SM FEW060 FEW250
     FM301400 VRB05KT P6SM SCT045 SCT250
     FM310200 VRB03KT P6SM FEW150 SCT180=



000
FTUS44 KLIX 301135
TAFNEW
TAF
KNEW 301135Z 3012/3112 16005KT P6SM FEW250
     FM301600 04007KT P6SM SCT045
     FM310000 15006KT P6SM SCT150=



    US Dept of Commerce
    National Oceanic and Atmospheric Administration
    National Weather Service
    1325 East West Highway
    Silver Spring, MD 20910
    Page Author: NWS Internet Services Team
Disclaimer
Information Quality
Credits
Glossary
Privacy Policy
Freedom of Information Act (FOIA)
About Us
Career Opportunities